createdAt,value
2019-03-23T00:00:59.213Z,68.89
2019-03-23T00:03:26.201Z,69.01
2019-03-23T00:05:53.092Z,68.98
2019-03-23T00:08:20.055Z,68.99
2019-03-23T00:10:46.921Z,69.10
2019-03-23T00:13:13.892Z,69.04
2019-03-23T00:15:40.768Z,69.02
2019-03-23T00:18:07.649Z,69.08
2019-03-23T00:20:34.565Z,69.02
2019-03-23T00:23:01.429Z,69.09
2019-03-23T00:25:28.307Z,69.13
2019-03-23T00:27:55.160Z,69.25
2019-03-23T00:30:22.047Z,69.42
2019-03-23T00:32:48.917Z,69.55
2019-03-23T00:35:15.789Z,69.62
2019-03-23T00:37:42.671Z,69.53
2019-03-23T00:40:13.733Z,69.71
2019-03-23T00:42:40.781Z,69.82
2019-03-23T00:45:07.805Z,70.02
2019-03-23T00:47:34.688Z,70.21
2019-03-23T00:50:01.544Z,70.22
2019-03-23T00:52:28.416Z,70.32
2019-03-23T00:54:55.289Z,70.30
2019-03-23T00:57:22.151Z,70.48
2019-03-23T00:59:49.110Z,70.62
2019-03-23T01:02:15.979Z,70.83
2019-03-23T01:04:42.838Z,70.93
2019-03-23T01:07:09.677Z,70.88
2019-03-23T01:09:36.541Z,70.83
2019-03-23T01:12:03.539Z,70.73
2019-03-23T01:14:30.402Z,70.80
2019-03-23T01:16:57.260Z,70.97
2019-03-23T01:19:24.112Z,70.94
2019-03-23T01:21:50.988Z,70.78
2019-03-23T01:24:17.884Z,70.76
2019-03-23T01:26:44.748Z,70.80
2019-03-23T01:29:11.638Z,70.87
2019-03-23T01:31:38.532Z,70.91
2019-03-23T01:34:05.397Z,70.92
2019-03-23T01:36:32.373Z,70.86
2019-03-23T01:38:59.333Z,70.84
2019-03-23T01:41:26.209Z,70.90
2019-03-23T01:43:53.072Z,70.91
2019-03-23T01:46:19.854Z,70.95
2019-03-23T01:48:46.718Z,70.95
2019-03-23T01:51:13.599Z,71.00
2019-03-23T01:53:40.482Z,71.06
2019-03-23T01:56:07.362Z,71.15
2019-03-23T01:58:34.319Z,71.21
2019-03-23T02:01:01.200Z,71.23
2019-03-23T02:03:28.155Z,71.11
2019-03-23T02:05:55.024Z,71.25
2019-03-23T02:08:21.893Z,71.29
2019-03-23T02:10:48.863Z,71.36
2019-03-23T02:13:15.828Z,71.39
2019-03-23T02:15:42.676Z,71.39
2019-03-23T02:18:09.555Z,71.36
2019-03-23T02:20:36.448Z,71.31
2019-03-23T02:23:03.311Z,71.30
2019-03-23T02:25:30.173Z,71.26
2019-03-23T02:27:57.122Z,71.17
2019-03-23T02:30:24.043Z,71.26
2019-03-23T02:32:50.896Z,71.34
2019-03-23T02:35:17.778Z,71.42
2019-03-23T02:37:44.743Z,71.41
2019-03-23T02:40:11.806Z,71.40
2019-03-23T02:42:38.763Z,71.39
2019-03-23T02:45:06.232Z,71.49
2019-03-23T02:47:33.199Z,71.52
2019-03-23T02:50:00.421Z,71.38
2019-03-23T02:52:35.410Z,71.33
2019-03-23T02:55:02.289Z,71.37
2019-03-23T02:57:29.157Z,71.42
2019-03-23T02:59:56.143Z,71.33
2019-03-23T03:02:23.010Z,71.25
2019-03-23T03:04:49.884Z,71.22
2019-03-23T03:07:16.753Z,71.37
2019-03-23T03:09:43.619Z,71.32
2019-03-23T03:12:10.488Z,71.39
2019-03-23T03:14:37.506Z,71.49
2019-03-23T03:17:04.364Z,71.54
2019-03-23T03:19:31.230Z,71.59
2019-03-23T03:21:58.105Z,71.65
2019-03-23T03:24:24.987Z,71.67
2019-03-23T03:26:51.973Z,71.72
2019-03-23T03:29:18.826Z,71.72
2019-03-23T03:31:45.669Z,71.66
2019-03-23T03:34:12.523Z,71.67
2019-03-23T03:36:39.477Z,71.68
2019-03-23T03:39:07.056Z,71.72
2019-03-23T03:41:33.925Z,71.85
2019-03-23T03:44:00.888Z,71.95
2019-03-23T03:46:27.875Z,71.92
2019-03-23T03:48:54.793Z,71.90
2019-03-23T03:51:21.671Z,71.84
2019-03-23T03:53:48.562Z,71.79
2019-03-23T03:56:15.527Z,71.70
2019-03-23T03:58:42.494Z,71.72
2019-03-23T04:01:09.447Z,71.79
2019-03-23T04:03:36.319Z,71.78
2019-03-23T04:06:03.291Z,71.77
2019-03-23T04:08:30.191Z,71.61
2019-03-23T04:10:57.185Z,71.60
2019-03-23T04:13:24.045Z,71.77
2019-03-23T04:15:50.953Z,71.78
2019-03-23T04:18:17.920Z,71.86
2019-03-23T04:20:44.807Z,72.04
2019-03-23T04:23:11.664Z,72.06
2019-03-23T04:25:38.646Z,72.11
2019-03-23T04:28:05.586Z,72.17
2019-03-23T04:30:32.462Z,72.28
2019-03-23T04:32:59.340Z,72.34
2019-03-23T04:35:26.247Z,72.31
2019-03-23T04:37:53.189Z,72.24
2019-03-23T04:40:20.038Z,72.15
2019-03-23T04:42:46.911Z,72.06
2019-03-23T04:45:13.867Z,72.00
2019-03-23T04:47:40.729Z,72.04
2019-03-23T04:50:07.589Z,72.11
2019-03-23T04:52:34.485Z,72.10
2019-03-23T04:55:01.437Z,72.12
2019-03-23T04:57:28.307Z,72.18
2019-03-23T04:59:55.172Z,72.50
2019-03-23T05:02:22.041Z,72.80
2019-03-23T05:04:48.897Z,72.82
2019-03-23T05:07:15.748Z,72.69
2019-03-23T05:09:42.679Z,72.64
2019-03-23T05:12:09.555Z,72.54
2019-03-23T05:14:36.431Z,72.44
2019-03-23T05:17:03.314Z,72.33
2019-03-23T05:19:30.292Z,72.29
2019-03-23T05:21:57.162Z,72.27
2019-03-23T05:24:24.016Z,72.19
2019-03-23T05:26:50.857Z,72.15
2019-03-23T05:29:17.724Z,72.12
2019-03-23T05:31:44.573Z,72.15
2019-03-23T05:34:11.455Z,72.23
2019-03-23T05:36:38.336Z,72.26
2019-03-23T05:39:05.705Z,72.43
2019-03-23T05:41:32.568Z,72.40
2019-03-23T05:43:59.460Z,72.37
2019-03-23T05:46:26.437Z,72.33
2019-03-23T05:48:53.392Z,72.24
2019-03-23T05:51:20.265Z,72.30
2019-03-23T05:53:47.222Z,72.29
2019-03-23T05:56:14.085Z,72.37
2019-03-23T05:58:40.940Z,72.44
2019-03-23T06:01:07.808Z,72.61
2019-03-23T06:03:34.682Z,72.61
2019-03-23T06:06:01.544Z,72.48
2019-03-23T06:08:28.406Z,72.51
2019-03-23T06:10:55.266Z,72.68
2019-03-23T06:13:22.137Z,72.64
2019-03-23T06:15:49.091Z,72.57
2019-03-23T06:20:55.373Z,72.28
2019-03-23T06:23:22.244Z,73.87
2019-03-23T06:25:49.110Z,73.90
2019-03-23T06:28:15.989Z,72.99
2019-03-23T06:30:42.931Z,73.03
2019-03-23T06:33:09.799Z,74.11
2019-03-23T06:35:36.674Z,72.13
2019-03-23T06:38:03.539Z,69.37
2019-03-23T06:40:30.500Z,67.77
2019-03-23T06:42:59.896Z,67.53
2019-03-23T06:45:35.871Z,67.64
2019-03-23T06:48:02.741Z,67.70
2019-03-23T06:50:29.691Z,67.44
2019-03-23T06:52:56.576Z,67.61
2019-03-23T06:55:23.553Z,67.75
2019-03-23T06:57:50.526Z,68.02
2019-03-23T07:00:17.411Z,67.85
2019-03-23T07:02:44.383Z,67.88
2019-03-23T07:05:11.370Z,68.07
2019-03-23T07:07:38.331Z,68.31
2019-03-23T07:10:06.771Z,68.45
2019-03-23T07:12:33.731Z,68.41
2019-03-23T07:15:00.641Z,68.46
2019-03-23T07:17:27.577Z,68.48
2019-03-23T07:19:54.454Z,68.45
2019-03-23T07:22:21.457Z,68.32
2019-03-23T07:24:48.325Z,67.88
2019-03-23T07:27:15.223Z,68.00
2019-03-23T07:29:42.092Z,69.78
2019-03-23T07:32:08.963Z,70.39
2019-03-23T07:34:35.941Z,69.90
2019-03-23T07:37:02.837Z,68.97
2019-03-23T07:39:30.580Z,68.57
2019-03-23T07:41:57.589Z,66.47
2019-03-23T07:44:24.457Z,65.64
2019-03-23T07:46:51.315Z,64.77
2019-03-23T07:49:18.177Z,64.87
2019-03-23T07:51:45.051Z,65.01
2019-03-23T07:54:11.923Z,64.85
2019-03-23T07:56:38.913Z,64.96
2019-03-23T07:59:05.793Z,64.16
2019-03-23T08:01:32.661Z,63.20
2019-03-23T08:03:59.546Z,61.63
2019-03-23T08:06:26.413Z,62.70
2019-03-23T08:08:53.318Z,62.27
2019-03-23T08:11:20.291Z,61.54
2019-03-23T08:13:47.281Z,56.82
2019-03-23T08:16:14.235Z,56.22
2019-03-23T08:18:41.128Z,55.36
2019-03-23T08:21:08.101Z,54.70
2019-03-23T08:23:34.956Z,54.92
2019-03-23T08:26:01.830Z,54.92
2019-03-23T08:28:28.688Z,54.37
2019-03-23T08:30:55.566Z,54.42
2019-03-23T08:33:22.525Z,54.54
2019-03-23T08:35:49.396Z,54.46
2019-03-23T08:38:16.261Z,53.81
2019-03-23T08:40:43.148Z,53.87
2019-03-23T08:43:10.029Z,53.69
2019-03-23T08:45:37.003Z,52.72
2019-03-23T08:48:03.862Z,51.85
2019-03-23T08:50:30.806Z,51.52
2019-03-23T08:52:57.825Z,51.42
2019-03-23T08:55:24.712Z,51.04
2019-03-23T08:57:51.664Z,50.67
2019-03-23T09:00:18.543Z,50.22
2019-03-23T09:02:45.457Z,49.47
2019-03-23T09:05:12.435Z,49.60
2019-03-23T09:07:39.299Z,49.09
2019-03-23T09:10:20.494Z,48.56
2019-03-23T09:12:41.337Z,47.81
2019-03-23T09:15:08.281Z,48.06
2019-03-23T09:17:35.284Z,47.85
2019-03-23T09:20:02.328Z,48.36
2019-03-23T09:22:29.195Z,48.16
2019-03-23T09:24:56.936Z,47.74
2019-03-23T09:27:31.469Z,47.59
2019-03-23T09:29:58.431Z,47.00
2019-03-23T09:32:25.331Z,46.67
2019-03-23T09:34:52.311Z,46.56
2019-03-23T09:37:19.284Z,46.17
2019-03-23T09:39:46.265Z,45.34
2019-03-23T09:42:13.245Z,43.66
2019-03-23T09:44:40.144Z,43.98
2019-03-23T09:47:07.030Z,44.23
2019-03-23T09:49:34.015Z,43.06
2019-03-23T09:52:01.001Z,41.95
2019-03-23T09:54:27.889Z,41.18
2019-03-23T09:56:54.771Z,40.79
2019-03-23T09:59:21.697Z,40.46
2019-03-23T10:01:48.664Z,39.70
2019-03-23T10:04:15.566Z,39.64
2019-03-23T10:06:42.514Z,39.74
2019-03-23T10:09:09.402Z,38.92
2019-03-23T10:11:36.295Z,38.50
2019-03-23T10:14:03.315Z,37.94
2019-03-23T10:16:30.261Z,37.72
2019-03-23T10:18:57.133Z,37.30
2019-03-23T10:21:24.050Z,37.80
2019-03-23T10:23:51.040Z,37.59
2019-03-23T10:26:18.022Z,36.65
2019-03-23T10:28:44.917Z,36.59
2019-03-23T10:31:11.825Z,36.39
2019-03-23T10:33:38.809Z,36.37
2019-03-23T10:36:05.690Z,36.07
2019-03-23T10:38:32.662Z,36.55
2019-03-23T10:40:59.643Z,35.59
2019-03-23T10:43:26.518Z,34.91
2019-03-23T10:45:53.404Z,34.62
2019-03-23T10:48:20.319Z,33.61
2019-03-23T10:50:47.326Z,33.59
2019-03-23T10:53:22.802Z,33.97
2019-03-23T10:55:43.270Z,33.52
2019-03-23T10:58:10.251Z,32.96
2019-03-23T11:00:37.126Z,31.85
2019-03-23T11:03:04.006Z,31.99
2019-03-23T11:05:30.903Z,31.29
2019-03-23T11:07:57.894Z,31.13
2019-03-23T11:10:24.803Z,30.79
2019-03-23T11:12:51.718Z,30.66
2019-03-23T11:15:18.598Z,31.14
2019-03-23T11:17:45.525Z,30.20
2019-03-23T11:20:12.459Z,30.20
2019-03-23T11:22:39.352Z,29.74
2019-03-23T11:28:07.825Z,29.45
2019-03-23T11:30:34.707Z,29.32
2019-03-23T11:33:01.598Z,28.84
2019-03-23T11:35:28.599Z,29.58
2019-03-23T11:37:55.761Z,29.09
2019-03-23T11:40:30.794Z,28.86
2019-03-23T11:42:57.668Z,28.14
2019-03-23T11:45:24.542Z,28.36
2019-03-23T11:47:51.445Z,28.05
2019-03-23T11:50:18.317Z,27.42
2019-03-23T11:52:46.993Z,27.76
2019-03-23T11:55:19.995Z,27.81
2019-03-23T11:57:46.980Z,27.91
2019-03-23T12:00:13.985Z,27.71
2019-03-23T12:02:40.963Z,28.00
2019-03-23T12:05:07.774Z,27.10
2019-03-23T12:07:34.665Z,26.82
2019-03-23T12:10:01.649Z,26.96
2019-03-23T12:12:28.522Z,27.05
2019-03-23T12:14:55.393Z,26.75
2019-03-23T12:17:22.381Z,27.34
2019-03-23T12:19:49.361Z,26.69
2019-03-23T12:22:16.234Z,27.88
2019-03-23T12:24:43.205Z,27.26
2019-03-23T12:27:10.192Z,28.40
2019-03-23T12:29:37.157Z,26.29
2019-03-23T12:32:04.295Z,26.88
2019-03-23T12:34:31.167Z,26.38
2019-03-23T12:36:58.046Z,26.05
2019-03-23T12:39:25.031Z,25.98
2019-03-23T12:41:51.998Z,26.95
2019-03-23T12:44:18.988Z,25.67
2019-03-23T12:46:48.476Z,25.99
2019-03-23T12:49:14.714Z,25.45
2019-03-23T12:51:41.588Z,25.85
2019-03-23T12:54:08.454Z,25.83
2019-03-23T12:56:35.413Z,26.28
2019-03-23T12:59:02.330Z,26.73
2019-03-23T13:01:29.316Z,26.77
2019-03-23T13:03:56.188Z,26.02
2019-03-23T13:06:23.148Z,27.11
2019-03-23T13:08:50.034Z,27.01
2019-03-23T13:11:23.324Z,26.71
2019-03-23T13:13:45.660Z,25.99
2019-03-23T13:16:12.534Z,25.67
2019-03-23T13:18:39.506Z,25.51
2019-03-23T13:21:06.488Z,25.58
2019-03-23T13:23:33.356Z,25.56
2019-03-23T13:26:00.230Z,25.57
2019-03-23T13:28:27.138Z,25.37
2019-03-23T13:30:53.983Z,24.79
2019-03-23T13:33:20.878Z,24.62
2019-03-23T13:35:47.731Z,23.92
2019-03-23T13:38:14.653Z,24.11
2019-03-23T13:40:41.621Z,24.26
2019-03-23T13:43:08.610Z,25.17
2019-03-23T13:45:42.565Z,25.64
2019-03-23T13:48:10.982Z,24.82
2019-03-23T13:50:37.947Z,24.78
2019-03-23T13:53:04.903Z,23.75
2019-03-23T13:55:32.307Z,24.42
2019-03-23T13:58:08.659Z,23.75
2019-03-23T14:00:35.613Z,24.23
2019-03-23T14:03:02.487Z,24.52
2019-03-23T14:05:29.379Z,25.01
2019-03-23T14:07:56.279Z,24.38
2019-03-23T14:10:23.252Z,24.51
2019-03-23T14:12:50.123Z,25.36
2019-03-23T14:15:17.035Z,24.33
2019-03-23T14:17:43.909Z,24.48
2019-03-23T14:20:10.897Z,25.27
2019-03-23T14:22:37.873Z,24.48
2019-03-23T14:25:04.756Z,24.48
2019-03-23T14:27:31.639Z,24.31
2019-03-23T14:29:58.616Z,24.26
2019-03-23T14:32:25.605Z,24.18
2019-03-23T14:34:52.570Z,24.37
2019-03-23T14:37:19.484Z,24.32
2019-03-23T14:39:46.430Z,24.37
2019-03-23T14:42:13.302Z,24.36
2019-03-23T14:44:40.192Z,25.03
2019-03-23T14:47:07.066Z,25.31
2019-03-23T14:49:33.963Z,25.22
2019-03-23T14:52:00.927Z,24.89
2019-03-23T14:54:27.846Z,25.45
2019-03-23T14:56:54.834Z,25.84
2019-03-23T14:59:21.828Z,25.57
2019-03-23T15:01:48.697Z,26.00
2019-03-23T15:04:15.681Z,25.26
2019-03-23T15:06:42.642Z,25.40
2019-03-23T15:09:09.534Z,25.20
2019-03-23T15:11:36.520Z,25.41
2019-03-23T15:14:03.498Z,25.20
2019-03-23T15:16:30.400Z,25.59
2019-03-23T15:19:00.688Z,25.67
2019-03-23T15:21:27.556Z,25.96
2019-03-23T15:23:54.457Z,26.33
2019-03-23T15:26:21.383Z,26.21
2019-03-23T15:28:48.355Z,25.48
2019-03-23T15:31:15.252Z,25.92
2019-03-23T15:33:42.276Z,25.57
2019-03-23T15:36:09.262Z,25.34
2019-03-23T15:38:36.242Z,25.57
2019-03-23T15:41:03.152Z,26.58
2019-03-23T15:43:30.140Z,26.84
2019-03-23T15:45:57.144Z,26.10
2019-03-23T15:48:24.013Z,26.03
2019-03-23T15:50:50.931Z,26.14
2019-03-23T15:53:17.918Z,26.02
2019-03-23T15:55:44.914Z,25.85
2019-03-23T15:58:11.803Z,26.35
2019-03-23T16:00:38.784Z,25.64
2019-03-23T16:03:05.781Z,25.86
2019-03-23T16:05:32.768Z,26.55
2019-03-23T16:07:59.685Z,26.37
2019-03-23T16:10:26.574Z,27.09
2019-03-23T16:12:53.471Z,26.77
2019-03-23T16:15:20.351Z,27.29
2019-03-23T16:17:47.259Z,27.95
2019-03-23T16:20:14.148Z,28.09
2019-03-23T16:22:41.133Z,28.00
2019-03-23T16:25:08.497Z,29.24
2019-03-23T16:27:35.469Z,30.66
2019-03-23T16:30:02.459Z,30.73
2019-03-23T16:32:29.513Z,30.81
2019-03-23T16:34:56.489Z,29.86
2019-03-23T16:37:23.505Z,30.46
2019-03-23T16:39:50.492Z,31.59
2019-03-23T16:42:17.484Z,32.18
2019-03-23T16:44:44.387Z,33.51
2019-03-23T16:47:11.358Z,33.93
2019-03-23T16:49:38.387Z,34.73
2019-03-23T16:52:05.364Z,34.77
2019-03-23T16:54:32.337Z,35.11
2019-03-23T16:56:59.331Z,35.86
2019-03-23T16:59:26.318Z,36.21
2019-03-23T17:01:53.293Z,36.57
2019-03-23T17:04:20.295Z,37.20
2019-03-23T17:06:47.294Z,37.02
2019-03-23T17:09:14.521Z,37.82
2019-03-23T17:11:41.412Z,38.11
2019-03-23T17:14:08.300Z,38.92
2019-03-23T17:16:35.186Z,39.78
2019-03-23T17:19:02.217Z,40.42
2019-03-23T17:21:29.204Z,40.37
2019-03-23T17:23:56.213Z,40.93
2019-03-23T17:26:23.086Z,41.78
2019-03-23T17:28:49.982Z,42.43
2019-03-23T17:31:16.990Z,43.45
2019-03-23T17:33:43.894Z,44.62
2019-03-23T17:36:10.946Z,45.58
2019-03-23T17:38:37.917Z,46.57
2019-03-23T17:41:04.962Z,47.21
2019-03-23T17:43:31.993Z,47.82
2019-03-23T17:45:58.887Z,48.78
2019-03-23T17:48:25.873Z,49.34
2019-03-23T17:50:52.878Z,50.23
2019-03-23T17:53:19.863Z,50.42
2019-03-23T17:55:46.877Z,50.73
2019-03-23T17:58:13.862Z,51.39
2019-03-23T18:00:40.906Z,51.88
2019-03-23T18:03:07.877Z,52.07
2019-03-23T18:05:34.811Z,52.32
2019-03-23T18:08:01.694Z,52.81
2019-03-23T18:10:28.652Z,52.75
2019-03-23T18:12:55.663Z,53.04
2019-03-23T18:15:22.681Z,53.05
2019-03-23T18:17:51.257Z,53.14
2019-03-23T18:20:18.232Z,53.27
2019-03-23T18:22:45.119Z,53.50
2019-03-23T18:25:14.992Z,53.62
2019-03-23T18:27:41.934Z,54.18
2019-03-23T18:30:14.668Z,54.45
2019-03-23T18:32:41.573Z,54.74
2019-03-23T18:35:08.540Z,55.33
2019-03-23T18:37:35.521Z,55.58
2019-03-23T18:40:02.688Z,55.31
2019-03-23T18:42:29.751Z,55.23
2019-03-23T18:44:56.995Z,55.28
2019-03-23T18:47:24.012Z,55.32
2019-03-23T18:49:51.037Z,55.51
2019-03-23T18:52:18.076Z,55.73
2019-03-23T18:54:45.071Z,55.84
2019-03-23T18:57:12.023Z,56.25
2019-03-23T18:59:39.005Z,56.73
2019-03-23T19:02:06.067Z,56.66
2019-03-23T19:04:32.943Z,56.62
2019-03-23T19:06:59.940Z,56.78
2019-03-23T19:09:26.856Z,56.76
2019-03-23T19:11:53.859Z,56.86
2019-03-23T19:14:20.907Z,57.35
2019-03-23T19:16:47.887Z,57.51
2019-03-23T19:19:14.920Z,57.75
2019-03-23T19:21:41.922Z,57.74
2019-03-23T19:24:08.995Z,57.73
2019-03-23T19:26:35.989Z,57.73
2019-03-23T19:29:03.020Z,57.73
2019-03-23T19:31:30.013Z,58.25
2019-03-23T19:33:57.163Z,58.32
2019-03-23T19:36:24.210Z,58.44
2019-03-23T19:38:51.155Z,58.53
2019-03-23T19:41:18.079Z,58.70
2019-03-23T19:43:49.692Z,58.93
2019-03-23T19:46:13.747Z,59.25
2019-03-23T19:48:40.733Z,59.35
2019-03-23T19:51:07.637Z,59.66
2019-03-23T19:53:34.650Z,59.76
2019-03-23T19:56:01.569Z,59.99
2019-03-23T19:58:28.461Z,59.93
2019-03-23T20:00:55.369Z,60.19
2019-03-23T20:03:22.330Z,60.06
2019-03-23T20:05:49.213Z,60.13
2019-03-23T20:08:16.105Z,60.49
2019-03-23T20:10:43.110Z,60.63
2019-03-23T20:13:10.101Z,60.70
2019-03-23T20:15:37.079Z,60.67
2019-03-23T20:18:04.138Z,61.01
2019-03-23T20:20:31.175Z,61.13
2019-03-23T20:22:58.183Z,61.39
2019-03-23T20:25:25.064Z,61.37
2019-03-23T20:27:52.020Z,61.58
2019-03-23T20:30:18.881Z,61.61
2019-03-23T20:32:45.776Z,61.70
2019-03-23T20:35:12.658Z,61.75
2019-03-23T20:37:39.930Z,61.81
2019-03-23T20:40:07.544Z,61.97
2019-03-23T20:42:34.538Z,62.19
2019-03-23T20:45:01.535Z,62.30
2019-03-23T20:47:28.443Z,62.34
2019-03-23T20:49:55.401Z,62.33
2019-03-23T20:52:22.347Z,62.39
2019-03-23T20:54:49.268Z,62.64
2019-03-23T20:57:23.751Z,62.73
2019-03-23T20:59:45.042Z,62.83
2019-03-23T21:02:11.954Z,63.14
2019-03-23T21:04:38.840Z,63.14
2019-03-23T21:07:05.813Z,63.41
2019-03-23T21:09:32.698Z,63.66
2019-03-23T21:11:59.716Z,64.02
2019-03-23T21:14:26.673Z,64.07
2019-03-23T21:16:53.567Z,64.12
2019-03-23T21:19:20.553Z,64.25
2019-03-23T21:21:47.416Z,64.39
2019-03-23T21:24:14.309Z,64.41
2019-03-23T21:26:41.290Z,64.50
2019-03-23T21:29:08.193Z,64.61
2019-03-23T21:31:35.067Z,64.67
2019-03-23T21:34:02.072Z,64.70
2019-03-23T21:36:29.049Z,64.63
2019-03-23T21:38:56.053Z,64.93
2019-03-23T21:41:23.018Z,65.07
2019-03-23T21:43:49.917Z,65.25
2019-03-23T21:46:16.772Z,65.39
2019-03-23T21:48:43.702Z,65.53
2019-03-23T21:51:10.659Z,65.81
2019-03-23T21:53:38.827Z,66.02
2019-03-23T21:56:06.141Z,66.19
2019-03-23T21:58:32.998Z,66.28
2019-03-23T22:00:59.885Z,66.22
2019-03-23T22:03:26.812Z,66.34
2019-03-23T22:05:53.752Z,66.28
2019-03-23T22:08:20.723Z,66.40
2019-03-23T22:10:47.687Z,66.61
2019-03-23T22:13:14.576Z,66.72
2019-03-23T22:15:41.556Z,66.76
2019-03-23T22:18:08.540Z,66.87
2019-03-23T22:20:35.562Z,66.90
2019-03-23T22:23:02.410Z,66.81
2019-03-23T22:25:29.352Z,66.87
2019-03-23T22:27:56.326Z,66.99
2019-03-23T22:30:23.352Z,67.04
2019-03-23T22:32:50.302Z,67.12
2019-03-23T22:35:17.306Z,67.14
2019-03-23T22:37:44.171Z,67.17
2019-03-23T22:40:14.451Z,67.19
2019-03-23T22:42:41.491Z,67.28
2019-03-23T22:45:08.419Z,67.47
2019-03-23T22:47:35.329Z,67.64
2019-03-23T22:50:02.204Z,67.65
2019-03-23T22:52:29.242Z,67.61
2019-03-23T22:54:56.203Z,67.56
2019-03-23T22:57:23.214Z,67.51
2019-03-23T22:59:50.171Z,67.52
2019-03-23T23:02:17.156Z,67.52
2019-03-23T23:04:44.022Z,67.68
2019-03-23T23:07:11.001Z,67.73
2019-03-23T23:09:37.869Z,67.93
2019-03-23T23:12:05.598Z,67.94
2019-03-23T23:14:32.507Z,68.02
2019-03-23T23:16:59.461Z,68.05
2019-03-23T23:19:26.377Z,68.01
2019-03-23T23:21:53.256Z,68.05
2019-03-23T23:24:20.282Z,68.19
2019-03-23T23:26:47.155Z,68.32
2019-03-23T23:29:14.121Z,68.47
2019-03-23T23:31:40.991Z,68.63
2019-03-23T23:34:07.955Z,68.60
2019-03-23T23:36:34.823Z,68.57
2019-03-23T23:39:01.697Z,68.67
2019-03-23T23:41:28.573Z,68.96
2019-03-23T23:43:55.470Z,69.12
2019-03-23T23:46:22.349Z,69.12
2019-03-23T23:48:51.557Z,69.06
2019-03-23T23:51:17.986Z,69.05
2019-03-23T23:53:44.864Z,69.12
2019-03-23T23:56:11.794Z,69.23
2019-03-23T23:58:38.650Z,69.32
